首页
METAR-TAF:

METAR-TAF

机场 :

底特律, 密歇根州, 美国

纬度: 42-14-12N, 经度: 083-31-34W, 海拔: 218米

当前天气观测

该预报发布于44分钟前的20:53 UTC
风速7节,风向东南
温度 28°C
湿度 48%
气压 1006 hPa
能見度: 16.1公里
少量云层高于5500英尺

METAR: KYIP 192053Z 13007KT 10SM FEW055 28/16 A2971 RMK AO2 SLP053 T02780161 58021

时间: 17:37 (21:37 UTC)

预报

该预报发布于4小时和15分钟前的17:22 UTC
预报有效从19日的 18点(UTC)到 20日的 18点(UTC)
风速5节,风向
能見度: 10公里
散云层高于6000英尺
散云层高于15000英尺
多云层高于25000英尺
从 19日的 2000点(UTC)
风速6节,风向东南
能見度: 9.7公里
多云层高于5000英尺, 积雨云.
多云层高于10000英尺
小阵雨, 附近有雷暴
从 20日的 0000点(UTC)
风速5节,风向多变
能見度: 10公里
阴天层高于4000英尺
附近有阵雨
从 20日的 0400点(UTC)
风速8节,风向东北
能見度: 4.8公里
阴天层高于1500英尺
小雨, 轻雾
从 20日的 1000点(UTC)
风速7节,风向北转东北
能見度: 1.6公里
阴天层高于700英尺
雨, 轻雾

TAF: KYIP 191722Z 1918/2018 17005KT P6SM SCT060 SCT150 BKN250 FM192000 14006KT 6SM -SHRA VCTS BKN050CB BKN100 FM200000 VRB05KT P6SM VCSH OVC040 FM200400 05008KT 3SM -RA BR OVC015 FM201000 03007KT 1SM RA BR OVC007

超过4000个机场的气象观测和天气预报(METAR&TAF报告)。

可查询的气象台以黄色和红色小点在地图上表示。

将鼠标移到小点上方,可查看气象台名称。

然后点击查看天气观测和预报。

如需切换地图:点击带黑十字的绿色按钮放大地图;点击带横线的绿色按钮缩小地图;或者点击绿色箭头查看邻近地区的地图。


METAR-TAF: